Time;durP1;ratioP1;P1;durP2;ratioP2;P2;SDS_P1;SDS_P2;PMS_P1;PMS_P2;Temp;Humidity;BMP_temperature;BMP_pressure;BME280_temperature;BME280_humidity;BME280_pressure;Samples;Min_cycle;Max_cycle;Signal;HPM_P1;HPM_P2
2022/12/13 00:01:21;;;;;;;0.93;0.88;;;;;;;-1.88;100.00;100087.66;5032929;28;20052;-78
2022/12/13 00:03:47;;;;;;;2.15;2.05;;;;;;;-1.89;100.00;100091.22;5016734;28;20033;-78
2022/12/13 00:06:13;;;;;;;3.40;3.10;;;;;;;-1.89;100.00;100082.50;5000603;28;20061;-78
2022/12/13 00:08:40;;;;;;;0.70;0.70;;;;;;;-2.00;100.00;100063.03;5033045;28;20443;-75
2022/12/13 00:11:07;;;;;;;3.42;3.22;;;;;;;-1.86;100.00;100087.53;5032951;28;20079;-77
2022/12/13 00:13:33;;;;;;;6.45;2.03;;;;;;;-1.95;100.00;100081.16;5000529;28;20099;-75
2022/12/13 00:16:01;;;;;;;1.50;1.13;;;;;;;-2.03;100.00;100070.34;5032937;28;20467;-77
2022/12/13 00:18:27;;;;;;;1.95;1.85;;;;;;;-1.88;100.00;100092.94;5000150;28;20076;-75
2022/12/13 00:20:53;;;;;;;4.18;0.90;;;;;;;-1.90;100.00;100086.09;5000131;28;20200;-78
2022/12/13 00:23:19;;;;;;;1.98;1.88;;;;;;;-1.84;100.00;100085.63;4999622;28;20033;-78
2022/12/13 00:25:45;;;;;;;3.65;2.58;;;;;;;-1.84;100.00;100069.81;5000130;28;20103;-78
2022/12/13 00:28:11;;;;;;;0.68;0.68;;;;;;;-1.81;100.00;100080.13;5016363;28;20029;-77
2022/12/13 00:30:36;;;;;;;1.27;1.23;;;;;;;-1.79;100.00;100088.75;5032709;28;20033;-77
2022/12/13 00:33:02;;;;;;;2.17;2.03;;;;;;;-1.83;100.00;100071.50;5032566;28;20041;-79
2022/12/13 00:35:28;;;;;;;5.47;4.22;;;;;;;-1.74;100.00;100088.44;4999996;28;20045;-78
2022/12/13 00:37:53;;;;;;;6.90;4.90;;;;;;;-1.73;100.00;100084.84;5032263;28;20048;-77
2022/12/13 00:40:20;;;;;;;2.63;1.27;;;;;;;-1.75;100.00;100082.28;5016254;28;20038;-78
2022/12/13 00:42:46;;;;;;;1.48;1.38;;;;;;;-1.74;100.00;100084.00;5016385;28;20041;-77
2022/12/13 00:45:12;;;;;;;1.42;1.33;;;;;;;-1.81;100.00;100073.06;5032403;28;20383;-77
2022/12/13 00:47:38;;;;;;;0.68;0.68;;;;;;;-1.79;100.00;100079.06;5016194;28;20044;-76
2022/12/13 00:50:04;;;;;;;1.20;1.20;;;;;;;-1.68;100.00;100080.06;5048846;28;20029;-77
2022/12/13 00:52:30;;;;;;;0.90;0.90;;;;;;;-1.64;100.00;100078.88;5032153;28;20021;-76
2022/12/13 00:54:56;;;;;;;6.72;5.55;;;;;;;-1.69;100.00;100073.09;5015718;28;20120;-77
2022/12/13 00:57:21;;;;;;;3.40;2.75;;;;;;;-1.62;100.00;100074.31;4999820;28;20033;-77
2022/12/13 00:59:47;;;;;;;1.40;1.38;;;;;;;-1.65;100.00;100069.28;5015991;28;20044;-77
2022/12/13 01:02:13;;;;;;;3.45;3.25;;;;;;;-1.63;100.00;100070.84;5015681;28;20041;-77
2022/12/13 01:04:38;;;;;;;2.65;2.28;;;;;;;-1.61;100.00;100073.38;5032435;28;20030;-77
2022/12/13 01:07:04;;;;;;;0.80;0.80;;;;;;;-1.62;100.00;100079.59;5016211;28;20033;-77
2022/12/13 01:09:31;;;;;;;1.48;1.38;;;;;;;-1.63;100.00;100070.03;5032392;28;20025;-78
2022/12/13 01:12:03;;;;;;;2.72;2.20;;;;;;;-1.60;100.00;100082.97;5032385;28;20055;-77
2022/12/13 01:14:29;;;;;;;2.67;2.50;;;;;;;-1.61;100.00;100076.03;5048732;28;20033;-77
2022/12/13 01:16:54;;;;;;;1.55;0.70;;;;;;;-1.65;100.00;100070.13;5032358;28;20025;-76
2022/12/13 01:19:22;;;;;;;4.15;3.67;;;;;;;-1.58;100.00;100081.06;4999718;28;20041;-77
2022/12/13 01:21:47;;;;;;;1.42;1.23;;;;;;;-1.61;100.00;100078.66;5031939;28;20112;-76
2022/12/13 01:24:14;;;;;;;1.33;1.27;;;;;;;-1.60;100.00;100083.81;5032352;28;20061;-78
2022/12/13 01:26:40;;;;;;;1.70;1.00;;;;;;;-1.62;100.00;100076.97;4999638;28;20068;-77
2022/12/13 01:29:06;;;;;;;2.38;1.40;;;;;;;-1.56;100.00;100081.78;5015785;28;20057;-77
2022/12/13 01:31:32;;;;;;;3.33;3.03;;;;;;;-1.56;100.00;100081.78;5015807;28;20490;-77
2022/12/13 01:33:57;;;;;;;1.08;1.08;;;;;;;-1.58;100.00;100081.91;4999662;28;20092;-77
2022/12/13 01:36:23;;;;;;;3.33;2.45;;;;;;;-1.58;100.00;100078.44;5003441;28;20033;-76
2022/12/13 01:38:49;;;;;;;3.58;2.33;;;;;;;-1.58;100.00;100075.78;5019410;28;20033;-77
2022/12/13 01:41:17;;;;;;;0.70;0.70;;;;;;;-1.60;100.00;100082.97;5003286;28;20075;-78
2022/12/13 01:43:43;;;;;;;2.22;1.55;;;;;;;-1.63;100.00;100076.13;5035678;28;20131;-76
2022/12/13 01:46:12;;;;;;;2.15;1.83;;;;;;;-1.59;100.00;100079.34;5035759;28;20128;-77
2022/12/13 01:49:05;;;;;;;1.60;1.15;;;;;;;-1.61;100.00;100082.13;5019379;28;20484;-79
2022/12/13 01:51:47;;;;;;;1.15;1.15;;;;;;;-1.66;100.00;100073.72;5019230;28;20046;-77
2022/12/13 01:54:17;;;;;;;3.22;1.95;;;;;;;-1.66;100.00;100088.72;5019137;28;20087;-77
2022/12/13 01:56:46;;;;;;;1.50;1.00;;;;;;;-1.63;100.00;100088.47;5035717;28;20037;-80
2022/12/13 01:59:12;;;;;;;2.15;1.95;;;;;;;-1.72;100.00;100068.06;5002968;28;20095;-77
2022/12/13 02:01:39;;;;;;;2.38;1.73;;;;;;;-1.65;100.00;100085.09;5003021;28;20460;-77
2022/12/13 02:04:05;;;;;;;0.52;0.52;;;;;;;-1.68;100.00;100091.44;5019144;28;20112;-76
2022/12/13 02:06:42;;;;;;;2.28;2.08;;;;;;;-1.81;100.00;100065.16;5035590;28;20034;-76
2022/12/13 02:09:09;;;;;;;6.25;1.45;;;;;;;-1.71;100.00;100083.75;5036340;28;20107;-76
2022/12/13 02:11:38;;;;;;;2.33;2.08;;;;;;;-1.72;100.00;100090.00;5020066;28;20033;-76
2022/12/13 02:14:04;;;;;;;4.00;0.98;;;;;;;-1.72;100.00;100090.00;5036062;28;20083;-76
2022/12/13 02:16:44;;;;;;;5.28;1.83;;;;;;;-1.71;100.00;100107.50;5019281;28;20397;-76
2022/12/13 02:19:29;;;;;;;2.70;1.70;;;;;;;-1.73;100.00;100108.56;5002739;28;20041;-77
2022/12/13 02:22:10;;;;;;;2.72;1.88;;;;;;;-1.75;100.00;100103.38;5034940;28;20029;-78
2022/12/13 02:24:51;;;;;;;4.90;2.50;;;;;;;-1.83;100.00;100092.56;5018882;28;20041;-76
2022/12/13 02:27:32;;;;;;;1.67;1.60;;;;;;;-1.78;100.00;100086.00;5035239;28;20102;-76
2022/12/13 02:30:13;;;;;;;3.53;2.50;;;;;;;-1.78;100.00;100091.28;5018870;28;20041;-77
2022/12/13 02:32:48;;;;;;;1.17;1.08;;;;;;;-1.75;100.00;100095.47;5034983;28;20272;-76
2022/12/13 02:35:40;;;;;;;1.60;1.52;;;;;;;-1.78;100.00;100098.34;5034661;28;20483;-76
2022/12/13 02:38:17;;;;;;;4.20;2.58;;;;;;;-1.85;100.00;100082.16;5026727;28;20446;-76
2022/12/13 02:40:54;;;;;;;7.13;3.88;;;;;;;-1.87;100.00;100080.59;5002250;28;20049;-77
2022/12/13 02:43:24;;;;;;;1.95;1.35;;;;;;;-1.82;100.00;100087.19;5002100;28;20041;-76
2022/12/13 02:45:54;;;;;;;5.60;2.67;;;;;;;-1.85;100.00;100074.25;5017114;28;20496;-76
2022/12/13 02:48:27;;;;;;;2.53;2.33;;;;;;;-1.97;100.00;100056.69;5001630;28;20064;-76
2022/12/13 02:50:52;;;;;;;2.63;1.73;;;;;;;-1.88;100.00;100092.94;5034498;28;20438;-76
2022/12/13 02:53:20;;;;;;;2.92;1.85;;;;;;;-1.89;100.00;100083.31;5033913;28;20025;-75
2022/12/13 02:55:46;;;;;;;17.70;4.97;;;;;;;-1.92;100.00;100088.81;5034403;28;20037;-77
2022/12/13 02:58:13;;;;;;;6.40;3.67;;;;;;;-1.97;100.00;100098.84;5050886;28;20033;-78
2022/12/13 03:01:07;;;;;;;1.13;1.13;;;;;;;-2.00;100.00;100088.53;5018261;28;20036;-78
2022/12/13 03:03:47;;;;;;;5.30;3.67;;;;;;;-1.99;100.00;100093.69;5017654;28;20060;-77
2022/12/13 03:06:31;;;;;;;3.35;3.05;;;;;;;-2.04;100.00;100089.72;5018113;28;20064;-76
2022/12/13 03:09:28;;;;;;;0.73;0.70;;;;;;;-2.06;100.00;100089.00;5034571;28;20040;-76
2022/12/13 03:15:17;;;;;;;1.63;1.52;;;;;;;-1.94;100.00;100089.88;5034210;28;20029;-76
2022/12/13 03:17:58;;;;;;;4.00;2.85;;;;;;;-2.02;100.00;100079.91;5001557;28;20052;-77
2022/12/13 03:20:26;;;;;;;2.20;2.08;;;;;;;-1.95;100.00;100099.59;5034112;28;20057;-77
2022/12/13 03:22:52;;;;;;;0.82;0.82;;;;;;;-1.94;100.00;100097.78;5033670;28;20033;-77
2022/12/13 03:25:19;;;;;;;1.92;1.83;;;;;;;-1.95;100.00;100091.69;5001450;28;20125;-77
2022/12/13 03:27:45;;;;;;;5.78;2.50;;;;;;;-1.96;100.00;100089.16;5017213;28;20021;-76
2022/12/13 03:30:11;;;;;;;3.08;2.30;;;;;;;-2.02;100.00;100074.63;5017223;28;20029;-76
2022/12/13 03:32:37;;;;;;;5.40;3.28;;;;;;;-1.95;100.00;100080.31;5001247;28;20475;-77
2022/12/13 03:35:03;;;;;;;2.65;2.15;;;;;;;-1.95;100.00;100078.50;5017398;28;20032;-77
2022/12/13 03:37:28;;;;;;;2.40;2.22;;;;;;;-1.97;100.00;100075.16;5050322;28;20061;-78
2022/12/13 03:39:54;;;;;;;5.95;2.25;;;;;;;-1.98;100.00;100073.47;5001246;28;20064;-76
2022/12/13 03:42:20;;;;;;;0.52;0.52;;;;;;;-1.94;100.00;100084.63;5033619;28;20064;-77
2022/12/13 03:44:46;;;;;;;2.72;1.60;;;;;;;-1.91;100.00;100085.22;5001041;28;20029;-78
2022/12/13 03:47:11;;;;;;;1.20;1.10;;;;;;;-1.87;100.00;100084.06;5017432;28;20044;-77
2022/12/13 03:49:37;;;;;;;8.05;7.32;;;;;;;-1.91;100.00;100073.84;5049582;28;20025;-76
2022/12/13 03:52:03;;;;;;;5.30;2.20;;;;;;;-1.89;100.00;100072.78;5000947;28;20029;-77
2022/12/13 03:54:28;;;;;;;3.22;2.97;;;;;;;-1.90;100.00;100083.44;5033326;28;20045;-77
2022/12/13 03:56:54;;;;;;;0.75;0.75;;;;;;;-1.88;100.00;100077.13;5000747;28;20033;-77
2022/12/13 03:59:19;;;;;;;0.50;0.50;;;;;;;-1.86;100.00;100071.72;5033365;28;20034;-77
2022/12/13 04:01:45;;;;;;;7.10;5.22;;;;;;;-1.95;100.00;100053.97;5000729;28;20029;-76
2022/12/13 04:04:11;;;;;;;3.40;2.35;;;;;;;-1.84;100.00;100072.44;5000676;28;20069;-77
2022/12/13 04:06:39;;;;;;;1.80;1.58;;;;;;;-1.82;100.00;100081.94;5033937;28;20037;-78
2022/12/13 04:09:05;;;;;;;6.72;4.18;;;;;;;-1.83;100.00;100080.22;5016407;28;20044;-76
2022/12/13 04:14:15;;;;;;;6.43;4.18;;;;;;;-1.84;100.00;100097.00;5047458;28;20075;-77
2022/12/13 04:16:40;;;;;;;1.45;1.40;;;;;;;-1.82;100.00;100099.53;5000547;28;20379;-77
2022/12/13 04:19:06;;;;;;;4.03;2.47;;;;;;;-1.83;100.00;100098.66;5000370;28;20044;-76
2022/12/13 04:21:34;;;;;;;5.60;5.10;;;;;;;-1.83;100.00;100100.47;5033231;28;20021;-77
2022/12/13 04:23:59;;;;;;;2.17;1.63;;;;;;;-1.84;100.00;100098.81;5016891;28;20033;-77
2022/12/13 04:26:25;;;;;;;8.63;5.20;;;;;;;-1.83;100.00;100105.75;5016281;28;20029;-77
2022/12/13 04:28:51;;;;;;;1.13;1.02;;;;;;;-1.84;100.00;100098.81;5016498;28;20041;-76
2022/12/13 04:31:16;;;;;;;2.25;2.15;;;;;;;-1.81;100.00;100096.78;5000196;28;20033;-77
2022/12/13 04:33:42;;;;;;;1.65;1.55;;;;;;;-1.75;100.00;100108.66;5000039;28;20030;-78
2022/12/13 04:36:08;;;;;;;10.55;3.92;;;;;;;-1.72;100.00;100094.41;5000105;28;20037;-76
2022/12/13 04:38:34;;;;;;;1.35;1.35;;;;;;;-1.80;100.00;100087.06;5032419;28;20095;-77
2022/12/13 04:41:04;;;;;;;1.50;1.45;;;;;;;-1.78;100.00;100101.81;5032239;28;20037;-77
2022/12/13 04:43:30;;;;;;;1.85;1.75;;;;;;;-1.88;100.00;100099.97;5032935;28;20044;-76
2022/12/13 04:45:56;;;;;;;13.98;6.57;;;;;;;-1.87;100.00;100109.56;5032523;28;20025;-76
2022/12/13 04:48:21;;;;;;;2.90;2.05;;;;;;;-1.91;100.00;100103.66;5048654;28;20029;-77
2022/12/13 04:50:50;;;;;;;10.40;1.35;;;;;;;-1.91;100.00;100116.00;5016595;28;20079;-76
2022/12/13 04:53:15;;;;;;;4.63;4.20;;;;;;;-1.97;100.00;100101.50;4999771;28;20025;-76
2022/12/13 04:55:41;;;;;;;1.13;1.13;;;;;;;-1.94;100.00;100101.25;5016237;28;20040;-76
2022/12/13 04:58:07;;;;;;;3.53;2.83;;;;;;;-1.97;100.00;100098.03;5016173;28;20025;-76
2022/12/13 05:00:32;;;;;;;3.50;2.05;;;;;;;-1.92;100.00;100115.16;5032678;28;20065;-77
2022/12/13 05:02:58;;;;;;;1.77;1.67;;;;;;;-1.92;100.00;100107.25;5016112;28;20451;-77
2022/12/13 05:05:24;;;;;;;0.73;0.73;;;;;;;-1.92;100.00;100109.06;5015601;28;20539;-76
2022/12/13 05:07:49;;;;;;;6.05;3.80;;;;;;;-2.08;100.00;100093.53;5032540;28;20091;-76
2022/12/13 05:10:15;;;;;;;4.15;2.75;;;;;;;-1.96;100.00;100108.44;4999248;28;20116;-77
2022/12/13 05:12:41;;;;;;;2.38;2.22;;;;;;;-1.98;100.00;100110.34;4999678;28;20360;-76
2022/12/13 05:15:07;;;;;;;1.63;1.50;;;;;;;-2.02;100.00;100098.34;5015712;28;20064;-77
2022/12/13 05:17:33;;;;;;;3.22;2.15;;;;;;;-2.00;100.00;100104.34;4999862;28;20068;-77
2022/12/13 05:19:59;;;;;;;9.27;2.17;;;;;;;-2.01;100.00;100090.34;5032438;28;20414;-77
2022/12/13 05:22:25;;;;;;;2.97;2.25;;;;;;;-1.97;100.00;100090.13;4999132;28;20033;-77
2022/12/13 05:24:50;;;;;;;2.65;2.55;;;;;;;-1.99;100.00;100077.03;5032241;28;20030;-76
2022/12/13 05:27:16;;;;;;;3.80;2.92;;;;;;;-1.99;100.00;100077.03;4999605;28;20399;-76
2022/12/13 05:29:42;;;;;;;6.63;4.32;;;;;;;-2.03;100.00;100076.44;4999499;28;20112;-76
2022/12/13 05:32:08;;;;;;;4.88;4.07;;;;;;;-2.00;100.00;100078.00;5048689;28;20034;-76
2022/12/13 05:34:33;;;;;;;3.63;2.53;;;;;;;-2.02;100.00;100072.00;5015403;28;20041;-77
2022/12/13 05:36:59;;;;;;;7.28;2.95;;;;;;;-2.00;100.00;100065.66;4999516;28;20045;-76
2022/12/13 05:39:25;;;;;;;2.30;2.10;;;;;;;-2.04;100.00;100058.09;5048370;28;20087;-77
2022/12/13 05:41:51;;;;;;;4.65;3.03;;;;;;;-2.01;100.00;100068.44;5015703;28;20487;-77
2022/12/13 05:44:17;;;;;;;9.35;3.50;;;;;;;-2.00;100.00;100057.75;4999564;28;20037;-77
2022/12/13 05:46:43;;;;;;;1.50;1.40;;;;;;;-2.00;100.00;100049.88;5015528;28;20029;-75
2022/12/13 05:49:08;;;;;;;5.00;1.70;;;;;;;-2.02;100.00;100058.81;4999510;28;20033;-77
2022/12/13 05:51:34;;;;;;;5.22;3.67;;;;;;;-2.10;100.00;100035.69;4999367;28;20182;-77
2022/12/13 05:54:00;;;;;;;3.20;3.03;;;;;;;-2.08;100.00;100048.75;5031495;28;20472;-77
2022/12/13 05:56:26;;;;;;;1.40;1.33;;;;;;;-2.02;100.00;100066.72;5015266;28;20057;-76
2022/12/13 05:58:53;;;;;;;3.28;2.97;;;;;;;-2.03;100.00;100062.44;4999400;28;20045;-77
2022/12/13 06:01:19;;;;;;;1.45;1.35;;;;;;;-2.03;100.00;100051.91;5032063;28;20467;-77
2022/12/13 06:03:44;;;;;;;2.78;2.00;;;;;;;-2.06;100.00;100050.31;5015127;28;20045;-79
2022/12/13 06:06:11;;;;;;;2.30;2.13;;;;;;;-2.06;100.00;100057.38;5031934;28;20402;-76
2022/12/13 06:08:37;;;;;;;6.25;2.97;;;;;;;-2.21;100.00;100031.19;4998859;28;20387;-77
2022/12/13 06:11:04;;;;;;;2.70;1.17;;;;;;;-2.05;100.00;100054.63;4999122;28;20124;-76
2022/12/13 06:13:30;;;;;;;6.72;3.75;;;;;;;-2.15;100.00;100040.44;4998853;28;20368;-77
2022/12/13 06:16:01;;;;;;;3.60;2.88;;;;;;;-2.11;100.00;100043.72;5015568;28;20041;-76
2022/12/13 06:18:26;;;;;;;3.42;3.20;;;;;;;-2.09;100.00;100034.75;5048146;28;20029;-77
2022/12/13 06:21:00;;;;;;;2.30;2.05;;;;;;;-2.01;100.00;100035.03;4999457;28;20034;-78
2022/12/13 06:23:26;;;;;;;;;;;;;;;-1.99;100.00;100025.19;5035586;28;20440;-77
2022/12/13 06:25:52;;;;;;;6.25;5.25;;;;;;;-1.99;100.00;100038.34;5051983;28;20019;-76
2022/12/13 06:28:18;;;;;;;1.48;1.38;;;;;;;-1.96;100.00;100039.09;5018558;28;20467;-76
2022/12/13 06:30:43;;;;;;;3.25;2.83;;;;;;;-1.96;100.00;100026.75;5018831;28;20033;-76
2022/12/13 06:33:10;;;;;;;5.15;3.08;;;;;;;-1.93;100.00;100028.31;5002332;28;20033;-77
2022/12/13 06:35:36;;;;;;;6.32;3.05;;;;;;;-1.90;100.00;100012.31;5018716;28;20118;-76
2022/12/13 06:38:02;;;;;;;1.02;1.02;;;;;;;-1.97;100.00;100011.06;5018574;28;20472;-76
2022/12/13 06:40:32;;;;;;;3.28;3.03;;;;;;;-1.93;100.00;100030.97;5018080;28;20052;-76
2022/12/13 06:42:58;;;;;;;2.20;1.67;;;;;;;-1.89;100.00;100032.44;5035964;28;20034;-78
2022/12/13 06:45:24;;;;;;;5.60;3.63;;;;;;;-1.91;100.00;100032.53;5018443;28;20060;-77
2022/12/13 06:47:50;;;;;;;4.28;2.72;;;;;;;-1.88;100.00;100040.22;5034315;28;20029;-76
2022/12/13 06:50:15;;;;;;;0.80;0.80;;;;;;;-1.88;100.00;100042.88;5035987;28;20467;-76
2022/12/13 06:52:41;;;;;;;6.63;4.95;;;;;;;-1.91;100.00;100043.06;5034759;28;20029;-77
2022/12/13 06:55:07;;;;;;;4.65;3.20;;;;;;;-1.86;100.00;100055.91;5001083;28;20029;-79
2022/12/13 06:57:33;;;;;;;4.32;3.78;;;;;;;-1.88;100.00;100042.00;5017326;28;20079;-78
2022/12/13 06:59:59;;;;;;;5.03;3.45;;;;;;;-1.81;100.00;100059.88;5034352;28;20037;-77
2022/12/13 07:02:25;;;;;;;1.33;1.23;;;;;;;-1.84;100.00;100062.75;5017190;28;20057;-77
2022/12/13 07:04:51;;;;;;;5.45;3.78;;;;;;;-1.89;100.00;100059.59;5017570;28;20052;-77
2022/12/13 07:07:17;;;;;;;1.75;1.38;;;;;;;-1.90;100.00;100070.28;5017645;28;20041;-78
2022/12/13 07:09:43;;;;;;;2.45;2.25;;;;;;;-1.93;100.00;100059.94;5001207;28;20444;-77
2022/12/13 07:12:08;;;;;;;1.75;1.65;;;;;;;-1.90;100.00;100075.53;5017686;28;20087;-77
2022/12/13 07:14:34;;;;;;;1.30;1.08;;;;;;;-1.91;100.00;100065.94;5033520;28;20060;-77
2022/12/13 07:17:00;;;;;;;3.30;1.60;;;;;;;-1.87;100.00;100064.78;5033909;28;20107;-78
2022/12/13 07:19:25;;;;;;;2.35;2.15;;;;;;;-1.91;100.00;100044.88;5000740;28;20033;-77
2022/12/13 07:21:51;;;;;;;1.98;1.52;;;;;;;-1.75;100.00;100069.13;5001027;28;20029;-76
2022/12/13 07:24:17;;;;;;;3.42;2.60;;;;;;;-1.68;100.00;100077.44;5033516;28;20502;-76
2022/12/13 07:26:43;;;;;;;4.57;4.18;;;;;;;-1.73;100.00;100067.22;5033641;28;20120;-78
2022/12/13 07:29:08;;;;;;;6.80;3.58;;;;;;;-1.62;100.00;100079.59;5000625;28;20033;-79
2022/12/13 07:31:36;;;;;;;3.70;3.08;;;;;;;-1.58;100.00;100078.44;5016401;28;20029;-77
2022/12/13 07:34:01;;;;;;;5.93;3.65;;;;;;;-1.52;100.00;100079.75;5049588;28;20036;-79
2022/12/13 07:36:27;;;;;;;3.65;3.20;;;;;;;-1.49;100.00;100074.25;5016806;28;20033;-76
2022/12/13 07:38:54;;;;;;;0.68;0.68;;;;;;;-1.44;100.00;100077.38;5049988;28;20033;-77
2022/12/13 07:41:24;;;;;;;2.35;2.25;;;;;;;-1.53;100.00;100065.75;5032877;28;20051;-77
2022/12/13 07:43:51;;;;;;;7.25;3.25;;;;;;;-1.45;100.00;100076.56;5033362;28;20033;-79
2022/12/13 07:46:16;;;;;;;1.52;1.42;;;;;;;-1.47;100.00;100078.44;5016668;28;20033;-77
2022/12/13 07:48:42;;;;;;;1.98;1.88;;;;;;;-1.44;100.00;100078.22;5000928;28;20379;-77
2022/12/13 07:51:13;;;;;;;1.98;1.35;;;;;;;-1.46;100.00;100081.94;5016737;28;20526;-77
2022/12/13 07:53:39;;;;;;;2.45;2.25;;;;;;;-1.51;100.00;100078.78;5033382;28;20083;-77
2022/12/13 07:56:07;;;;;;;3.28;2.47;;;;;;;-1.54;100.00;100071.94;5032933;28;20072;-77
2022/12/13 07:58:33;;;;;;;1.50;1.10;;;;;;;-1.50;100.00;100070.78;5016059;28;20116;-77
2022/12/13 08:01:01;;;;;;;5.45;2.38;;;;;;;-1.50;100.00;100077.84;5034165;28;20375;-76
2022/12/13 08:03:27;;;;;;;2.03;1.52;;;;;;;-1.61;100.00;100068.94;5016299;28;20056;-79
2022/12/13 08:06:10;;;;;;;3.10;2.10;;;;;;;-1.47;100.00;100089.00;5000125;28;20128;-77
2022/12/13 08:08:36;;;;;;;4.18;2.78;;;;;;;-1.45;100.00;100071.28;5016819;28;20036;-79
2022/12/13 08:11:07;;;;;;;3.13;2.03;;;;;;;-1.45;100.00;100076.56;5032769;28;20053;-76
2022/12/13 08:13:34;;;;;;;3.15;2.88;;;;;;;-1.45;100.00;100068.63;5000113;28;20033;-76
2022/12/13 08:16:05;;;;;;;3.00;2.60;;;;;;;-1.51;100.00;100060.34;5000093;28;20045;-76
2022/12/13 08:18:32;;;;;;;1.73;1.63;;;;;;;-1.46;100.00;100064.31;4999992;28;20048;-76
2022/12/13 08:21:03;;;;;;;5.90;3.03;;;;;;;-1.48;100.00;100066.25;5032304;28;20176;-79
2022/12/13 08:23:30;;;;;;;1.80;1.65;;;;;;;-1.48;100.00;100076.78;5032754;28;20367;-77
2022/12/13 08:25:56;;;;;;;4.40;2.92;;;;;;;-1.46;100.00;100069.56;5018829;28;20044;-79
2022/12/13 08:28:22;;;;;;;2.75;1.42;;;;;;;-1.46;100.00;100079.28;5025094;28;20037;-77
2022/12/13 08:30:48;;;;;;;2.97;1.95;;;;;;;-1.50;100.00;100078.69;5034912;28;20033;-79
2022/12/13 08:33:14;;;;;;;6.40;2.97;;;;;;;-1.51;100.00;100070.88;5050776;28;20040;-79
2022/12/13 08:35:40;;;;;;;3.22;2.33;;;;;;;-1.46;100.00;100069.56;5001064;28;20533;-80
2022/12/13 08:38:06;;;;;;;8.25;3.22;;;;;;;-1.48;100.00;100074.16;5033235;28;20120;-78
2022/12/13 08:40:31;;;;;;;2.35;2.10;;;;;;;-1.44;100.00;100082.66;5032772;28;20027;-77
2022/12/13 08:42:57;;;;;;;5.15;2.85;;;;;;;-1.46;100.00;100085.41;5000094;28;20136;-79
2022/12/13 08:45:23;;;;;;;4.88;3.50;;;;;;;-1.49;100.00;100088.25;4999135;28;20064;-77
2022/12/13 08:47:49;;;;;;;3.75;2.88;;;;;;;-1.49;100.00;100077.72;5048527;28;20514;-77
2022/12/13 08:50:15;;;;;;;3.05;1.95;;;;;;;-1.49;100.00;100090.06;5032355;28;20124;-77
2022/12/13 08:52:43;;;;;;;10.88;5.22;;;;;;;-1.53;100.00;100086.84;5016027;28;20055;-77
2022/12/13 08:55:11;;;;;;;7.28;3.97;;;;;;;-1.49;100.00;100100.63;5064676;28;20026;-77
2022/12/13 08:57:37;;;;;;;10.55;5.05;;;;;;;-1.52;100.00;100091.13;5016159;28;20061;-77
2022/12/13 09:00:04;;;;;;;3.08;2.88;;;;;;;-1.50;100.00;100086.59;5032392;28;20471;-75
2022/12/13 09:02:30;;;;;;;4.50;3.53;;;;;;;-1.47;100.00;100096.06;5015386;28;20442;-76
2022/12/13 09:04:56;;;;;;;7.32;5.05;;;;;;;-1.47;100.00;100096.91;4999551;28;20467;-76
2022/12/13 09:07:21;;;;;;;2.47;2.28;;;;;;;-1.47;100.00;100099.53;5015314;28;20467;-78
2022/12/13 09:09:47;;;;;;;3.35;2.25;;;;;;;-1.46;100.00;100100.38;5032546;28;20475;-78
2022/12/13 09:12:13;;;;;;;3.13;2.35;;;;;;;-1.46;100.00;100101.22;5015986;28;20395;-78
2022/12/13 09:14:38;;;;;;;0.90;0.90;;;;;;;-1.49;100.00;100096.19;5048629;28;20033;-78
2022/12/13 09:17:04;;;;;;;1.00;0.90;;;;;;;-1.56;100.00;100081.78;4999546;28;20042;-78
2022/12/13 09:19:30;;;;;;;5.68;3.50;;;;;;;-1.49;100.00;100088.25;5015733;28;20430;-77
2022/12/13 09:21:55;;;;;;;6.75;3.03;;;;;;;-1.46;100.00;100079.28;5048651;28;20080;-79
2022/12/13 09:24:21;;;;;;;4.25;2.20;;;;;;;-1.39;100.00;100088.44;5015401;28;20455;-79
2022/12/13 09:26:47;;;;;;;5.30;3.85;;;;;;;-1.40;100.00;100092.03;5031722;28;20028;-79
2022/12/13 09:29:15;;;;;;;9.65;4.20;;;;;;;-1.40;100.00;100073.56;5015612;28;20506;-80
2022/12/13 09:31:41;;;;;;;6.50;3.63;;;;;;;-1.37;100.00;100078.59;5015733;28;20453;-78
2022/12/13 09:34:08;;;;;;;10.70;6.15;;;;;;;-1.37;100.00;100079.44;5033116;28;20021;-79
2022/12/13 09:36:33;;;;;;;4.00;3.70;;;;;;;-1.36;100.00;100082.91;5048264;28;20507;-80
2022/12/13 09:38:59;;;;;;;3.63;2.92;;;;;;;-1.48;100.00;100066.25;4999383;28;20073;-80
2022/12/13 09:41:40;;;;;;;4.43;3.33;;;;;;;-1.45;100.00;100081.00;4999046;28;20038;-79
2022/12/13 09:44:13;;;;;;;6.00;2.60;;;;;;;-1.44;100.00;100088.75;5015597;28;20050;-79
2022/12/13 09:46:42;;;;;;;10.52;6.72;;;;;;;-1.46;100.00;100090.66;4999423;28;20048;-79
2022/12/13 09:49:35;;;;;;;7.68;4.70;;;;;;;-1.50;100.00;100091.03;5048283;28;20037;-80
2022/12/13 09:52:02;;;;;;;12.18;6.07;;;;;;;-1.48;100.00;100097.88;5029096;28;20083;-79
2022/12/13 09:54:28;;;;;;;8.43;4.13;;;;;;;-1.51;100.00;100090.16;5031601;28;20120;-80
2022/12/13 09:56:55;;;;;;;8.68;4.13;;;;;;;-1.62;100.00;100069.06;5034974;28;20543;-80
2022/12/13 09:59:30;;;;;;;5.15;3.10;;;;;;;-1.43;100.00;100100.16;5036891;28;20029;-78
2022/12/13 10:02:02;;;;;;;9.65;5.57;;;;;;;-1.34;100.00;100102.94;5003086;28;20045;-78
2022/12/13 10:04:27;;;;;;;11.50;6.03;;;;;;;-1.25;100.00;100103.19;5018743;28;20040;-78
2022/12/13 10:06:54;;;;;;;6.75;4.57;;;;;;;-1.18;100.00;100101.78;5035432;28;20030;-78
2022/12/13 10:09:19;;;;;;;7.75;4.97;;;;;;;-1.08;100.00;100113.31;5035188;28;20038;-79
2022/12/13 10:11:50;;;;;;;9.05;5.90;;;;;;;-1.04;100.00;100120.03;5051968;28;20452;-78
2022/12/13 10:14:26;;;;;;;7.63;5.35;;;;;;;-0.97;100.00;100113.34;5018690;28;20026;-78
2022/12/13 10:16:58;;;;;;;8.77;6.25;;;;;;;-0.92;100.00;100113.00;5018993;28;20048;-80
2022/12/13 10:19:33;;;;;;;7.20;3.85;;;;;;;-0.84;100.00;100112.41;5034870;28;20128;-77
2022/12/13 10:22:00;;;;;;;10.70;5.95;;;;;;;-0.86;100.00;100098.47;5034954;28;20494;-78
2022/12/13 10:24:31;;;;;;;7.50;5.30;;;;;;;-0.78;100.00;100107.47;5002558;28;20068;-78
2022/12/13 10:26:59;;;;;;;9.52;5.53;;;;;;;-0.72;100.00;100103.50;5019077;28;20531;-78
2022/12/13 10:29:24;;;;;;;11.00;7.20;;;;;;;-0.69;100.00;100121.75;5035158;28;20037;-78
2022/12/13 10:31:51;;;;;;;5.45;3.63;;;;;;;-0.65;100.00;100117.09;5034657;28;20446;-78
2022/12/13 10:34:27;;;;;;;6.18;3.72;;;;;;;-0.62;100.00;100120.31;5034963;28;20029;-79
2022/12/13 10:36:53;;;;;;;10.73;6.50;;;;;;;-0.57;100.00;100118.16;5018176;28;20021;-80
2022/12/13 10:39:35;;;;;;;8.57;5.43;;;;;;;-0.55;100.00;100124.16;5034486;28;20041;-78
2022/12/13 10:42:04;;;;;;;9.00;5.55;;;;;;;-0.53;100.00;100138.09;5034694;28;20087;-78
2022/12/13 10:44:29;;;;;;;5.43;3.72;;;;;;;-0.51;100.00;100135.31;5018009;28;20076;-78
2022/12/13 10:47:01;;;;;;;8.52;5.60;;;;;;;-0.45;100.00;100148.91;5034451;28;20068;-79
2022/12/13 10:49:34;;;;;;;10.25;7.68;;;;;;;-0.39;100.00;100144.94;5034698;28;20029;-79
2022/12/13 10:52:00;;;;;;;10.57;6.25;;;;;;;-0.41;100.00;100135.47;5034782;28;20077;-78
2022/12/13 10:54:31;;;;;;;4.80;3.17;;;;;;;-0.31;100.00;100149.63;5034525;28;20072;-79
2022/12/13 10:57:01;;;;;;;1.90;1.80;;;;;;;-0.28;100.00;100146.72;5034245;28;20029;-79
2022/12/13 10:59:33;;;;;;;4.07;3.72;;;;;;;-0.25;100.00;100142.03;5050808;28;20536;-79
2022/12/13 11:02:02;;;;;;;6.05;4.40;;;;;;;-0.18;100.00;100138.94;5018285;28;20075;-78
2022/12/13 11:04:30;;;;;;;14.98;8.45;;;;;;;-0.11;100.00;100138.28;5001902;28;20080;-79
2022/12/13 11:06:58;;;;;;;4.55;3.47;;;;;;;-0.10;100.00;100139.16;5000951;28;20033;-79
2022/12/13 11:09:33;;;;;;;6.43;2.40;;;;;;;-0.08;100.00;100138.06;5001728;28;20025;-77
2022/12/13 11:12:03;;;;;;;2.28;2.03;;;;;;;-0.26;100.00;100113.94;5033937;28;20029;-78
2022/12/13 11:14:34;;;;;;;8.98;5.18;;;;;;;-0.09;100.00;100146.94;5001317;28;20025;-80
2022/12/13 11:17:09;;;;;;;5.32;3.22;;;;;;;-0.14;100.00;100130.59;5017705;28;20030;-79
2022/12/13 11:19:46;;;;;;;4.07;3.50;;;;;;;-0.18;100.00;100125.72;5034000;28;20430;-79
2022/12/13 11:22:30;;;;;;;9.93;4.78;;;;;;;-0.12;100.00;100133.16;5033787;28;20438;-79
2022/12/13 11:25:02;;;;;;;7.85;2.75;;;;;;;-0.12;100.00;100126.06;5033842;28;20037;-79
2022/12/13 11:27:58;;;;;;;1.45;1.35;;;;;;;-0.16;100.00;100113.19;5033677;28;20425;-79